Terminal Aerodrome Forecast
Issued by NWS

Home | Current Version | Previous Version | Text Only | Print | Product List | Glossary On
Versions: 1 2 3 4 5 6 7 8 9 10 11 12 13 14 15 16
000
FTUS45 KRIW 171100
TAFBPI
TAF
KBPI 171124Z 1712/1812 VRB06KT P6SM SCT250
     FM171800 24011KT P6SM FEW080 SCT200
     FM180200 VRB05KT P6SM SCT080 BKN200=

USA.gov is the U.S. government's official web portal to all federal, state and local government web resources and services.